Time;durP1;ratioP1;P1;durP2;ratioP2;P2;SDS_P1;SDS_P2;PMS_P1;PMS_P2;Temp;Humidity;BMP_temperature;BMP_pressure;BME280_temperature;BME280_humidity;BME280_pressure;Samples;Min_cycle;Max_cycle;Signal;HPM_P1;HPM_P2
2022/04/16 00:01:52;;;;;;;9.90;5.70;;;;;;;5.00;100.00;101849.50;7387197;19;20750;-47
2022/04/16 00:04:24;;;;;;;8.80;6.30;;;;;;;4.81;100.00;101851.28;7395437;19;20459;-45
2022/04/16 00:06:54;;;;;;;10.57;6.50;;;;;;;4.80;100.00;101855.53;7389981;19;20423;-47
2022/04/16 00:09:23;;;;;;;14.10;8.10;;;;;;;4.61;100.00;101855.66;7392191;19;21045;-45
2022/04/16 00:11:53;;;;;;;9.67;5.87;;;;;;;4.78;100.00;101857.09;7389651;19;20415;-45
2022/04/16 00:14:23;;;;;;;13.20;7.63;;;;;;;4.84;100.00;101859.25;7393318;19;20380;-45
2022/04/16 00:16:53;;;;;;;12.93;7.37;;;;;;;4.91;100.00;101853.84;7388392;19;20411;-45
2022/04/16 00:19:25;;;;;;;10.73;6.63;;;;;;;4.84;100.00;101861.78;7392981;19;20411;-48
2022/04/16 00:21:54;;;;;;;11.33;6.83;;;;;;;4.78;100.00;101863.84;7389236;19;20415;-48
2022/04/16 00:24:24;;;;;;;10.50;6.00;;;;;;;4.59;100.00;101872.53;7397699;19;20407;-48
2022/04/16 00:26:53;;;;;;;13.27;7.20;;;;;;;4.69;100.00;101867.44;7383216;19;20417;-48
2022/04/16 00:29:23;;;;;;;11.90;6.00;;;;;;;4.52;100.00;101872.78;7393107;19;20420;-46
2022/04/16 00:31:53;;;;;;;10.50;6.30;;;;;;;4.42;100.00;101874.56;7389695;19;20966;-46
2022/04/16 00:34:25;;;;;;;9.90;5.30;;;;;;;4.43;100.00;101873.81;7393026;19;20391;-45
2022/04/16 00:36:55;;;;;;;11.97;5.87;;;;;;;4.39;100.00;101879.41;7368585;19;20390;-46
2022/04/16 00:39:24;;;;;;;11.23;6.57;;;;;;;4.21;100.00;101880.41;7392759;19;20422;-50
2022/04/16 00:41:54;;;;;;;9.00;5.47;;;;;;;4.29;100.00;101875.19;7365530;19;20418;-50
2022/04/16 00:44:24;;;;;;;8.00;4.90;;;;;;;4.21;100.00;101876.19;7398105;19;20389;-48
2022/04/16 00:46:54;;;;;;;10.77;5.00;;;;;;;4.18;100.00;101881.94;7387908;19;20411;-45
2022/04/16 00:49:26;;;;;;;16.53;6.23;;;;;;;4.15;100.00;101884.22;7391212;19;20494;-48
2022/04/16 00:51:55;;;;;;;10.57;5.90;;;;;;;4.10;100.00;101882.91;7358027;19;20427;-45
2022/04/16 00:54:25;;;;;;;11.83;5.10;;;;;;;3.91;100.00;101885.56;7392119;19;20375;-46
2022/04/16 00:56:54;;;;;;;8.73;5.50;;;;;;;3.91;100.00;101896.66;7366361;19;20677;-47
2022/04/16 00:59:24;;;;;;;14.10;7.27;;;;;;;4.14;100.00;101892.66;7392007;19;20450;-46
2022/04/16 01:01:53;;;;;;;11.70;6.50;;;;;;;4.24;100.00;101886.66;7348245;19;20422;-43
2022/04/16 01:04:26;;;;;;;11.27;5.57;;;;;;;4.19;100.00;101893.03;7391809;19;20397;-44
2022/04/16 01:06:56;;;;;;;11.67;6.13;;;;;;;4.14;100.00;101891.75;7349609;19;20438;-46
2022/04/16 01:09:26;;;;;;;10.53;6.37;;;;;;;4.23;100.00;101895.09;7390148;19;20415;-45
2022/04/16 01:11:56;;;;;;;11.93;6.40;;;;;;;4.14;100.00;101892.66;7373975;19;20399;-47
2022/04/16 01:14:25;;;;;;;16.93;6.80;;;;;;;4.03;100.00;101903.59;7392633;19;20881;-47
2022/04/16 01:16:56;;;;;;;10.87;7.00;;;;;;;3.90;100.00;101910.19;7381965;19;20407;-49
2022/04/16 01:19:29;;;;;;;18.30;8.00;;;;;;;3.80;100.00;101916.91;7391931;19;20403;-49
2022/04/16 01:21:58;;;;;;;13.50;6.57;;;;;;;3.74;100.00;101912.19;7354852;19;20431;-44
2022/04/16 01:24:30;;;;;;;12.00;6.30;;;;;;;3.75;100.00;101913.97;7389326;19;20902;-44
2022/04/16 01:27:00;;;;;;;12.13;5.90;;;;;;;3.82;100.00;101916.28;7365348;19;20430;-45
2022/04/16 01:29:30;;;;;;;10.80;6.27;;;;;;;3.85;100.00;101916.53;7391183;19;20418;-46
2022/04/16 01:31:59;;;;;;;11.47;6.60;;;;;;;3.68;100.00;101932.94;7356192;19;21140;-45
2022/04/16 01:34:29;;;;;;;7.13;4.63;;;;;;;3.57;100.00;101934.53;7391167;19;20388;-48
2022/04/16 01:37:02;;;;;;;9.93;5.60;;;;;;;3.49;100.00;101941.50;7363201;19;20402;-43
2022/04/16 01:39:35;;;;;;;10.57;5.20;;;;;;;3.43;100.00;101950.28;7384022;19;20933;-52
2022/04/16 01:42:04;;;;;;;12.37;4.60;;;;;;;3.38;100.00;101948.19;7383864;19;20429;-46
2022/04/16 01:44:34;;;;;;;7.93;4.43;;;;;;;3.44;100.00;101941.88;7391565;19;20391;-47
2022/04/16 01:47:03;;;;;;;7.87;3.97;;;;;;;3.34;100.00;101948.69;7385832;19;20423;-44
2022/04/16 01:49:35;;;;;;;6.50;4.30;;;;;;;3.16;100.00;101959.75;7390353;19;20403;-44
2022/04/16 01:52:06;;;;;;;11.20;4.23;;;;;;;3.19;100.00;101947.31;7384633;19;20478;-46
2022/04/16 01:54:39;;;;;;;8.07;4.70;;;;;;;3.23;100.00;101951.94;7391945;19;20384;-49
2022/04/16 01:57:09;;;;;;;12.90;5.03;;;;;;;3.09;100.00;101960.88;7387114;19;20382;-45
2022/04/16 01:59:38;;;;;;;11.67;6.47;;;;;;;3.14;100.00;101958.72;7389536;19;20430;-48
2022/04/16 02:02:08;;;;;;;12.47;6.00;;;;;;;3.12;100.00;101957.72;7354265;19;20429;-47
2022/04/16 02:04:38;;;;;;;10.83;4.77;;;;;;;3.31;100.00;101955.16;7390936;19;20367;-44
2022/04/16 02:07:08;;;;;;;8.37;4.70;;;;;;;3.46;100.00;101956.56;7349830;19;20395;-46
2022/04/16 02:09:40;;;;;;;7.13;4.47;;;;;;;3.47;100.00;101950.69;7388111;19;20402;-43
2022/04/16 02:12:11;;;;;;;7.40;4.20;;;;;;;3.42;100.00;101956.13;7356621;19;20374;-48
2022/04/16 02:14:40;;;;;;;13.20;4.73;;;;;;;3.43;100.00;101953.72;7391479;19;20832;-50
2022/04/16 02:17:10;;;;;;;12.50;4.83;;;;;;;3.27;100.00;101956.53;7353905;19;20461;-46
2022/04/16 02:19:41;;;;;;;7.60;4.60;;;;;;;3.32;100.00;101952.75;7391584;19;20431;-47
2022/04/16 02:22:11;;;;;;;9.47;4.43;;;;;;;3.18;100.00;101955.72;7387382;19;20793;-46
2022/04/16 02:24:44;;;;;;;9.50;5.07;;;;;;;3.02;100.00;101966.16;7394944;19;20418;-47
2022/04/16 02:27:13;;;;;;;9.60;5.13;;;;;;;2.87;100.00;101963.09;7388422;19;20419;-43
2022/04/16 02:29:43;;;;;;;8.13;5.43;;;;;;;2.80;100.00;101969.28;7389101;19;20422;-44
2022/04/16 02:32:13;;;;;;;8.07;4.40;;;;;;;2.80;100.00;101969.28;7388204;19;20514;-48
2022/04/16 02:34:43;;;;;;;9.13;4.70;;;;;;;2.91;100.00;101968.63;7398460;19;20390;-47
2022/04/16 02:37:12;;;;;;;9.23;5.10;;;;;;;2.79;100.00;101973.50;7392414;19;20421;-45
2022/04/16 02:39:44;;;;;;;8.67;4.60;;;;;;;2.77;100.00;101974.97;7395382;19;20408;-46
2022/04/16 02:42:18;;;;;;;6.90;3.30;;;;;;;2.61;100.00;101987.06;7392391;19;20418;-42
2022/04/16 02:47:29;;;;;;;6.37;3.30;;;;;;;2.60;100.00;101988.72;7366922;19;20415;-44
2022/04/16 02:49:59;;;;;;;10.90;3.37;;;;;;;2.58;100.00;101994.41;7395231;19;20433;-46
2022/04/16 02:52:29;;;;;;;5.83;3.43;;;;;;;2.58;100.00;101999.50;7392957;19;20951;-45
2022/04/16 02:55:01;;;;;;;8.97;4.50;;;;;;;2.43;100.00;101995.66;7396894;19;20394;-45
2022/04/16 02:57:30;;;;;;;5.87;3.60;;;;;;;2.33;100.00;101994.63;7392058;19;20423;-45
2022/04/16 03:00:00;;;;;;;7.13;3.80;;;;;;;2.25;100.00;102002.44;7395037;19;20426;-49
2022/04/16 03:02:36;;;;;;;8.60;3.70;;;;;;;2.29;100.00;102004.56;7392037;19;20426;-45
2022/04/16 03:05:08;;;;;;;10.73;3.63;;;;;;;2.32;100.00;102010.69;7397569;19;20375;-46
2022/04/16 03:07:38;;;;;;;6.77;3.60;;;;;;;2.38;100.00;102013.81;7391366;19;20973;-43
2022/04/16 03:10:12;;;;;;;5.67;3.10;;;;;;;2.24;100.00;102009.94;7394289;19;20426;-45
2022/04/16 03:12:46;;;;;;;7.03;3.43;;;;;;;2.19;100.00;102017.16;7389320;19;20415;-42
2022/04/16 03:17:59;;;;;;;6.07;3.33;;;;;;;2.28;100.00;102023.13;7394773;19;20444;-43
2022/04/16 03:20:29;;;;;;;9.40;4.27;;;;;;;2.33;100.00;102015.03;7394526;19;20409;-42
2022/04/16 03:22:59;;;;;;;7.63;3.93;;;;;;;2.36;100.00;102015.31;7391600;19;20731;-43
2022/04/16 03:25:32;;;;;;;14.63;4.10;;;;;;;2.42;100.00;102018.47;7396929;19;20367;-44
2022/04/16 03:28:03;;;;;;;6.37;3.50;;;;;;;2.39;100.00;102015.59;7346773;19;20419;-46
2022/04/16 03:30:32;;;;;;;8.53;3.53;;;;;;;2.41;100.00;102006.47;7395719;19;20367;-49
2022/04/16 03:33:02;;;;;;;7.50;3.10;;;;;;;2.36;100.00;102005.13;7390389;19;20406;-45
2022/04/16 03:35:32;;;;;;;6.00;3.30;;;;;;;2.29;100.00;102014.75;7396357;19;20373;-47
2022/04/16 03:38:01;;;;;;;7.20;4.10;;;;;;;2.35;100.00;102011.88;7391348;19;20427;-45
2022/04/16 03:40:33;;;;;;;8.03;3.90;;;;;;;2.41;100.00;102009.03;7394105;19;20404;-43
2022/04/16 03:43:04;;;;;;;9.67;4.57;;;;;;;2.46;100.00;102010.31;7388672;19;20495;-43
2022/04/16 03:45:35;;;;;;;10.00;4.40;;;;;;;2.49;100.00;102008.09;7394702;19;20392;-44
2022/04/16 03:48:07;;;;;;;7.93;4.60;;;;;;;2.48;100.00;102013.94;7389169;19;20405;-47
2022/04/16 03:50:37;;;;;;;6.90;4.03;;;;;;;2.32;100.00;102023.41;7394945;19;20398;-47
2022/04/16 03:53:07;;;;;;;7.40;4.17;;;;;;;2.14;100.00;102028.53;7389560;19;20413;-47
2022/04/16 04:01:05;;;;;;;6.90;3.20;;;;;;;2.05;100.00;102037.84;7395772;19;20395;-46
2022/04/16 04:03:36;;;;;;;8.53;3.40;;;;;;;1.97;100.00;102052.38;7394260;19;20405;-43
2022/04/16 04:06:07;;;;;;;12.03;5.20;;;;;;;1.88;100.00;102060.00;7394942;19;20895;-43
2022/04/16 04:08:37;;;;;;;13.90;6.23;;;;;;;1.91;100.00;102055.22;7392656;19;20502;-45
2022/04/16 04:11:10;;;;;;;13.37;5.27;;;;;;;1.97;100.00;102055.81;7395453;19;20388;-46
2022/04/16 04:13:39;;;;;;;17.20;5.40;;;;;;;2.10;100.00;102049.38;7394556;19;20969;-48
2022/04/16 04:16:09;;;;;;;14.00;5.63;;;;;;;2.19;100.00;102041.72;7383839;19;20378;-49
2022/04/16 04:18:39;;;;;;;9.60;5.40;;;;;;;2.39;100.00;102039.44;7393431;19;20407;-46
2022/04/16 04:21:08;;;;;;;9.53;5.10;;;;;;;2.40;100.00;102033.59;7387600;19;20398;-47
2022/04/16 04:23:38;;;;;;;10.60;5.70;;;;;;;2.37;100.00;102042.59;7392730;19;20993;-46
2022/04/16 04:26:10;;;;;;;15.47;6.43;;;;;;;2.39;100.00;102041.06;7395782;19;20398;-48
2022/04/16 04:28:39;;;;;;;8.90;4.80;;;;;;;2.14;100.00;102048.91;7392942;19;20478;-46
2022/04/16 04:31:10;;;;;;;8.47;4.03;;;;;;;1.78;100.00;102048.03;7389435;19;20382;-45
2022/04/16 04:33:40;;;;;;;7.77;3.70;;;;;;;1.64;100.00;102054.28;7394457;19;20367;-43
2022/04/16 04:36:09;;;;;;;7.47;3.00;;;;;;;1.47;100.00;102056.09;7387399;19;21129;-49
2022/04/16 04:38:39;;;;;;;6.60;2.90;;;;;;;1.49;100.00;102058.78;7393123;19;20393;-48
2022/04/16 04:41:11;;;;;;;8.90;3.80;;;;;;;1.45;100.00;102057.56;7388187;19;20395;-45
2022/04/16 04:43:40;;;;;;;9.67;3.47;;;;;;;1.40;100.00;102058.78;7393177;19;20901;-43
2022/04/16 04:46:10;;;;;;;9.30;3.97;;;;;;;1.46;100.00;102058.47;7383740;19;20385;-45
2022/04/16 04:48:39;;;;;;;7.83;4.47;;;;;;;1.44;100.00;102067.59;7392662;19;20398;-49
2022/04/16 04:51:09;;;;;;;7.50;3.90;;;;;;;1.48;100.00;102062.06;7388974;19;20371;-46
2022/04/16 04:53:38;;;;;;;9.10;4.90;;;;;;;1.39;100.00;102069.66;7393651;19;20962;-46
2022/04/16 04:56:18;;;;;;;15.63;6.30;;;;;;;1.47;100.00;102070.44;7381186;19;20375;-46
2022/04/16 04:58:47;;;;;;;9.40;3.70;;;;;;;1.46;100.00;102078.81;7387958;19;20410;-46
2022/04/16 05:01:18;;;;;;;9.13;3.80;;;;;;;1.41;100.00;102082.53;7365927;19;20388;-47
2022/04/16 05:03:47;;;;;;;9.70;4.17;;;;;;;1.45;100.00;102085.53;7391951;19;20382;-44
2022/04/16 05:06:17;;;;;;;10.70;4.90;;;;;;;1.36;100.00;102097.34;7365062;19;20373;-45
2022/04/16 05:08:46;;;;;;;10.80;4.80;;;;;;;1.36;100.00;102097.34;7391418;19;20421;-47
2022/04/16 05:11:20;;;;;;;11.23;5.40;;;;;;;1.48;100.00;102090.94;7359963;19;20721;-46
2022/04/16 05:13:50;;;;;;;12.97;5.67;;;;;;;1.52;100.00;102088.69;7391582;19;20375;-47
2022/04/16 05:16:25;;;;;;;9.43;4.80;;;;;;;1.56;100.00;102093.34;7364205;19;20378;-49
2022/04/16 05:18:54;;;;;;;9.47;4.63;;;;;;;1.55;100.00;102089.94;7390117;19;20904;-46
2022/04/16 05:21:24;;;;;;;10.63;5.50;;;;;;;1.62;100.00;102091.41;7365627;19;20387;-46
2022/04/16 05:23:53;;;;;;;10.47;5.23;;;;;;;1.71;100.00;102102.53;7393644;19;20379;-46
2022/04/16 05:26:25;;;;;;;11.83;4.33;;;;;;;1.72;100.00;102094.16;7368771;19;20391;-43
2022/04/16 05:28:56;;;;;;;8.97;4.07;;;;;;;1.74;100.00;102087.53;7391506;19;20415;-44
2022/04/16 05:31:26;;;;;;;8.97;4.30;;;;;;;1.83;100.00;102096.81;7359412;19;20461;-46
2022/04/16 05:36:38;;;;;;;12.17;4.60;;;;;;;2.01;100.00;102092.66;7351637;19;20370;-50
2022/04/16 05:39:08;;;;;;;8.03;4.17;;;;;;;2.14;100.00;102099.84;7389705;19;20403;-48
2022/04/16 05:41:40;;;;;;;11.70;4.53;;;;;;;2.18;100.00;102099.41;7373690;19;20386;-45
2022/04/16 05:44:10;;;;;;;8.40;4.10;;;;;;;2.22;100.00;102098.97;7392541;19;20390;-43
2022/04/16 05:46:40;;;;;;;5.80;3.27;;;;;;;2.27;100.00;102092.63;7381150;19;20984;-48
2022/04/16 05:49:09;;;;;;;8.90;3.83;;;;;;;2.35;100.00;102087.41;7391965;19;20927;-48
2022/04/16 05:51:38;;;;;;;10.20;3.97;;;;;;;2.44;100.00;102085.72;7371218;19;20393;-46
2022/04/16 05:54:08;;;;;;;8.30;4.20;;;;;;;2.51;100.00;102088.13;7390558;19;20367;-48
2022/04/16 05:56:40;;;;;;;11.23;5.43;;;;;;;2.59;100.00;102093.94;7363598;19;20394;-45
2022/04/16 05:59:10;;;;;;;9.80;5.10;;;;;;;2.71;100.00;102094.22;7389455;19;20422;-45
2022/04/16 06:01:39;;;;;;;6.90;4.80;;;;;;;2.80;100.00;102097.66;7356177;19;20965;-45
2022/04/16 06:04:09;;;;;;;8.10;4.70;;;;;;;2.82;100.00;102093.59;7390683;19;20383;-50
2022/04/16 06:06:39;;;;;;;10.73;5.10;;;;;;;2.95;100.00;102088.00;7369766;19;20771;-44
2022/04/16 06:09:08;;;;;;;8.23;5.67;;;;;;;3.02;100.00;102088.56;7392126;19;20443;-44
2022/04/16 06:11:42;;;;;;;10.30;5.40;;;;;;;3.10;100.00;102098.75;7392481;19;20409;-47
2022/04/16 06:14:11;;;;;;;9.73;4.90;;;;;;;3.16;100.00;102102.59;7399294;19;20363;-47
2022/04/16 06:16:41;;;;;;;9.90;4.73;;;;;;;3.20;100.00;102105.59;7375789;19;20415;-44
2022/04/16 06:19:10;;;;;;;7.87;5.07;;;;;;;3.29;100.00;102105.56;7397104;19;20434;-44
2022/04/16 06:21:40;;;;;;;10.20;5.53;;;;;;;3.38;100.00;102100.38;7391519;19;20927;-45
2022/04/16 06:24:10;;;;;;;7.93;4.03;;;;;;;3.51;100.00;102110.09;7398612;19;20391;-46
2022/04/16 06:26:42;;;;;;;5.63;3.73;;;;;;;3.58;100.00;102109.88;7393179;19;20439;-44
2022/04/16 06:29:11;;;;;;;8.60;3.90;;;;;;;3.70;100.00;102116.88;7398496;19;20427;-44
2022/04/16 06:31:41;;;;;;;6.43;3.53;;;;;;;3.69;100.00;102117.66;7392356;19;20417;-44
2022/04/16 06:34:10;;;;;;;4.80;2.73;;;;;;;3.81;100.00;102117.84;7398616;19;20384;-45
2022/04/16 06:36:40;;;;;;;5.87;2.90;;;;;;;3.86;100.00;102127.75;7388591;19;20415;-51
2022/04/16 06:39:10;;;;;;;7.93;3.40;;;;;;;3.91;100.00;102138.38;7395513;19;20411;-45
2022/04/16 06:41:42;;;;;;;5.53;2.50;;;;;;;3.92;100.00;102138.53;7375609;19;20402;-49
2022/04/16 06:44:11;;;;;;;7.73;3.60;;;;;;;4.06;100.00;102136.31;7398323;19;20363;-48
2022/04/16 06:46:47;;;;;;;7.63;3.20;;;;;;;4.17;100.00;102145.81;7386966;19;20788;-48
2022/04/16 06:49:16;;;;;;;5.97;2.70;;;;;;;4.21;100.00;102141.91;7395569;19;20483;-47
2022/04/16 06:51:46;;;;;;;6.90;3.93;;;;;;;4.31;100.00;102147.06;7391541;19;20512;-45
2022/04/16 06:54:15;;;;;;;8.80;3.03;;;;;;;4.41;100.00;102146.22;7397882;19;20380;-46
2022/04/16 06:56:47;;;;;;;4.57;2.50;;;;;;;4.49;100.00;102148.56;7391953;19;20949;-47
2022/04/16 06:59:17;;;;;;;6.00;2.97;;;;;;;4.56;100.00;102145.81;7394422;19;20391;-45
2022/04/16 07:01:46;;;;;;;5.07;2.43;;;;;;;4.61;100.00;102139.41;7385152;19;20430;-49
2022/04/16 07:04:17;;;;;;;18.10;6.03;;;;;;;4.68;100.00;102139.19;7396158;19;20412;-44
2022/04/16 07:06:46;;;;;;;4.70;2.40;;;;;;;4.77;100.00;102125.44;7385857;19;20431;-47
2022/04/16 07:09:16;;;;;;;5.03;2.10;;;;;;;4.90;100.00;102112.94;7399399;19;20441;-48
2022/04/16 07:11:48;;;;;;;5.47;2.80;;;;;;;4.91;100.00;102096.84;7390144;19;20948;-43
2022/04/16 07:14:17;;;;;;;4.43;2.03;;;;;;;5.07;100.00;102076.03;7397052;19;20727;-46
2022/04/16 07:16:47;;;;;;;6.60;2.80;;;;;;;5.14;100.00;102087.69;7391379;19;20964;-46
2022/04/16 07:19:17;;;;;;;5.93;2.33;;;;;;;5.23;100.00;102077.34;7396949;19;20796;-45
2022/04/16 07:21:46;;;;;;;4.33;1.87;;;;;;;5.27;100.00;102080.28;7387944;19;20418;-46
2022/04/16 07:24:16;;;;;;;41.83;12.83;;;;;;;5.40;100.00;102076.19;7400181;19;20400;-47
2022/04/16 07:26:48;;;;;;;5.83;2.37;;;;;;;5.45;100.00;102094.50;7366070;19;20403;-46
2022/04/16 07:29:18;;;;;;;121.90;35.30;;;;;;;5.57;100.00;102104.84;7395029;19;20412;-50
2022/04/16 07:31:47;;;;;;;49.20;16.77;;;;;;;5.67;100.00;102117.69;7388731;19;20423;-46
2022/04/16 07:34:17;;;;;;;4.90;2.60;;;;;;;5.77;100.00;102158.66;7396228;19;20385;-45
2022/04/16 07:36:47;;;;;;;5.63;2.60;;;;;;;5.87;100.00;102192.72;7390862;19;20426;-47
2022/04/16 07:39:17;;;;;;;5.13;2.37;;;;;;;5.96;100.00;102231.94;7397627;19;20433;-43
2022/04/16 07:41:51;;;;;;;3.97;1.40;;;;;;;5.94;100.00;102305.19;7392752;19;20416;-45
2022/04/16 07:44:20;;;;;;;4.30;2.30;;;;;;;5.98;100.00;102417.44;7394937;19;20387;-43
2022/04/16 07:46:50;;;;;;;17.53;6.20;;;;;;;6.10;100.00;102427.88;7386858;19;20421;-45
2022/04/16 07:49:20;;;;;;;4.03;1.47;;;;;;;6.13;100.00;102478.50;7393696;19;20409;-48
2022/04/16 07:51:49;;;;;;;15.03;4.07;;;;;;;6.21;100.00;102491.22;7382040;19;20416;-46
2022/04/16 07:54:19;;;;;;;10.60;2.73;;;;;;;6.33;100.00;102495.63;7395674;19;20428;-47
2022/04/16 07:56:51;;;;;;;4.40;2.00;;;;;;;6.34;100.00;102521.41;7358786;19;20738;-45
2022/04/16 07:59:21;;;;;;;4.83;1.50;;;;;;;6.44;100.00;102542.72;7393035;19;20766;-44
2022/04/16 08:01:50;;;;;;;16.17;6.00;;;;;;;6.53;100.00;102542.63;7383004;19;20423;-45
2022/04/16 08:04:20;;;;;;;2.67;1.20;;;;;;;6.59;100.00;102564.59;7394994;19;20451;-43
2022/04/16 08:06:50;;;;;;;30.83;10.07;;;;;;;6.72;100.00;102557.97;7358476;19;20397;-49
2022/04/16 08:09:20;;;;;;;4.60;1.27;;;;;;;6.84;100.00;102582.09;7392720;19;20779;-46
2022/04/16 08:11:52;;;;;;;3.70;1.90;;;;;;;7.04;100.00;102585.47;7361468;19;20403;-45
2022/04/16 08:14:23;;;;;;;2.80;1.60;;;;;;;7.18;100.00;102596.03;7395108;19;20384;-46
2022/04/16 08:16:53;;;;;;;4.00;1.37;;;;;;;7.24;100.00;102619.66;7354501;19;20440;-46
2022/04/16 08:19:23;;;;;;;3.00;1.33;;;;;;;7.24;100.00;102646.22;7392749;19;20436;-49
2022/04/16 08:21:53;;;;;;;3.57;1.50;;;;;;;7.24;100.00;102676.13;7385634;19;20427;-47
2022/04/16 08:24:38;;;;;;;4.73;1.73;;;;;;;7.34;100.00;102700.94;7395028;19;20731;-47
2022/04/16 08:27:11;;;;;;;2.73;1.00;;;;;;;7.36;100.00;102764.50;7346253;19;20985;-47
2022/04/16 08:29:40;;;;;;;1.70;0.80;;;;;;;7.47;100.00;102833.88;7392808;19;20416;-49
2022/04/16 08:32:10;;;;;;;2.60;1.00;;;;;;;7.47;100.00;102862.13;7367064;19;20965;-47
2022/04/16 08:34:55;;;;;;;2.67;1.07;;;;;;;7.77;100.00;102845.03;7394257;19;20421;-48
2022/04/16 08:37:25;;;;;;;4.23;1.80;;;;;;;7.86;100.00;102868.97;7388877;19;20415;-47
2022/04/16 08:39:54;;;;;;;4.40;1.90;;;;;;;7.91;100.00;102870.28;7391781;19;20419;-46
2022/04/16 08:42:26;;;;;;;6.23;2.43;;;;;;;7.93;100.00;102897.00;7388724;19;20431;-45
2022/04/16 08:44:56;;;;;;;3.90;1.20;;;;;;;7.89;100.00;102892.34;7393875;19;20400;-44
2022/04/16 08:47:26;;;;;;;5.90;2.17;;;;;;;7.92;100.00;102910.63;7357488;19;20398;-47
2022/04/16 08:49:56;;;;;;;6.43;2.57;;;;;;;7.99;100.00;102919.75;7391780;19;20430;-44
2022/04/16 08:52:26;;;;;;;2.97;1.00;;;;;;;8.17;100.00;102925.63;7387871;19;20483;-46
2022/04/16 08:54:56;;;;;;;2.30;0.80;;;;;;;8.24;100.00;102952.75;7393358;19;20395;-47
2022/04/16 08:57:28;;;;;;;3.90;1.20;;;;;;;8.39;100.00;102976.31;7356174;19;20419;-44
2022/04/16 08:59:58;;;;;;;3.27;1.33;;;;;;;8.49;100.00;103020.09;7389971;19;20435;-47
2022/04/16 09:02:29;;;;;;;3.40;1.17;;;;;;;8.37;100.00;103067.91;7347430;19;20408;-47
2022/04/16 09:05:07;;;;;;;3.57;1.30;;;;;;;8.44;100.00;103085.69;7393097;19;20418;-45
2022/04/16 09:07:46;;;;;;;3.03;1.37;;;;;;;8.54;100.00;103091.66;7379412;19;20424;-50
2022/04/16 09:10:16;;;;;;;3.60;1.50;;;;;;;8.66;100.00;103079.84;7391920;19;20429;-45
2022/04/16 09:12:52;;;;;;;3.70;1.30;;;;;;;8.72;100.00;103102.66;7356786;19;20411;-43
2022/04/16 09:15:23;;;;;;;2.67;1.07;;;;;;;8.64;100.00;103117.44;7378688;19;20415;-51
2022/04/16 09:18:00;;;;;;;4.07;1.50;;;;;;;8.67;100.00;103119.38;7391253;19;20400;-50
2022/04/16 09:20:33;;;;;;;53.97;19.93;;;;;;;8.81;100.00;103115.44;7356116;19;20531;-49
2022/04/16 09:23:03;;;;;;;2.60;1.13;;;;;;;8.76;100.00;103126.22;7395364;19;20812;-44
2022/04/16 09:25:33;;;;;;;4.97;1.20;;;;;;;9.04;100.00;103125.16;7341718;19;20395;-47
2022/04/16 09:28:10;;;;;;;2.97;1.00;;;;;;;9.04;100.00;103127.72;7390574;19;20363;-48
2022/04/16 09:30:50;;;;;;;2.93;0.90;;;;;;;9.17;100.00;103133.16;7360136;19;20387;-48
2022/04/16 09:33:20;;;;;;;3.77;1.57;;;;;;;9.38;100.00;103125.44;7390779;19;20391;-46
2022/04/16 09:35:54;;;;;;;2.73;1.23;;;;;;;9.40;100.00;103133.28;7385466;19;20482;-51
2022/04/16 09:38:25;;;;;;;5.13;1.70;;;;;;;9.39;100.00;103149.53;7391933;19;20947;-46
2022/04/16 09:40:54;;;;;;;3.03;1.30;;;;;;;9.34;100.00;103155.97;7386792;19;20759;-47
2022/04/16 09:43:36;;;;;;;5.07;1.63;;;;;;;9.42;100.00;103139.47;7393172;19;20392;-43
2022/04/16 09:46:13;;;;;;;10.63;3.93;;;;;;;9.70;100.00;103145.28;7363205;19;20387;-47
2022/04/16 09:48:43;;;;;;;3.83;1.60;;;;;;;9.70;100.00;103144.38;7397334;19;20470;-48
2022/04/16 09:51:13;;;;;;;5.93;1.20;;;;;;;9.76;100.00;103155.22;7360837;19;20402;-46
2022/04/16 09:53:47;;;;;;;12.67;5.63;;;;;;;9.81;100.00;103147.84;7398842;19;20387;-48
2022/04/16 09:56:17;;;;;;;3.63;1.73;;;;;;;10.01;100.00;103152.09;7390458;19;20411;-46
2022/04/16 09:58:54;;;;;;;25.50;9.23;;;;;;;9.80;100.00;103151.22;7397499;19;20413;-48
2022/04/16 10:01:24;;;;;;;8.30;3.50;;;;;;;10.05;100.00;103143.81;7362654;19;20667;-49
2022/04/16 10:03:54;;;;;;;5.10;2.70;;;;;;;10.04;100.00;103142.00;7398766;19;20390;-47
2022/04/16 10:06:24;;;;;;;2.90;1.40;;;;;;;9.97;100.00;103150.03;7362707;19;20419;-51
2022/04/16 10:08:53;;;;;;;6.70;1.30;;;;;;;10.03;100.00;103145.38;7395417;19;20499;-46
2022/04/16 10:11:42;;;;;;;4.20;1.40;;;;;;;10.09;100.00;103151.03;7392318;19;20415;-45
2022/04/16 10:14:24;;;;;;;2.83;1.37;;;;;;;10.29;100.00;103143.13;7398882;19;20399;-48
2022/04/16 10:17:01;;;;;;;6.47;3.43;;;;;;;10.31;100.00;103131.25;7369721;19;20407;-51
2022/04/16 10:19:40;;;;;;;8.07;2.30;;;;;;;10.47;100.00;103136.00;7396209;19;20423;-49
2022/04/16 10:22:09;;;;;;;11.20;5.57;;;;;;;10.43;100.00;103136.50;7391421;19;20419;-49
2022/04/16 10:24:49;;;;;;;7.80;3.70;;;;;;;10.38;100.00;103128.38;7398493;19;20459;-49
2022/04/16 10:27:20;;;;;;;6.30;2.83;;;;;;;10.39;100.00;103135.34;7392518;19;20763;-45
2022/04/16 10:29:52;;;;;;;5.10;2.07;;;;;;;10.46;100.00;103141.94;7395048;19;20402;-46
2022/04/16 10:32:22;;;;;;;4.77;1.90;;;;;;;10.32;100.00;103135.63;7393712;19;20443;-45
2022/04/16 10:34:51;;;;;;;12.73;6.77;;;;;;;10.23;100.00;103130.63;7398844;19;20458;-47
2022/04/16 10:37:26;;;;;;;5.57;2.10;;;;;;;10.43;100.00;103131.34;7389889;19;20479;-48
2022/04/16 10:39:56;;;;;;;5.93;2.93;;;;;;;10.69;100.00;103135.09;7396449;19;20422;-47
2022/04/16 10:42:32;;;;;;;3.20;1.73;;;;;;;10.57;99.50;103135.97;7392731;19;20417;-50
2022/04/16 10:45:23;;;;;;;4.40;2.07;;;;;;;10.61;100.00;103140.56;7391189;19;20742;-50
2022/04/16 10:47:54;;;;;;;6.00;2.73;;;;;;;10.52;100.00;103147.59;7401179;19;20473;-45
2022/04/16 10:50:27;;;;;;;6.20;2.80;;;;;;;10.70;99.53;103147.22;7353826;19;20416;-50
2022/04/16 10:52:57;;;;;;;7.10;3.47;;;;;;;10.78;100.00;103146.19;7396246;19;20387;-49
2022/04/16 10:55:30;;;;;;;4.93;2.50;;;;;;;10.84;100.00;103143.16;7367096;19;20748;-49
2022/04/16 10:58:03;;;;;;;3.73;1.97;;;;;;;10.66;99.26;103147.00;7394693;19;20406;-43
2022/04/16 11:00:45;;;;;;;7.03;2.70;;;;;;;10.82;100.00;103148.22;7388590;19;20391;-43
2022/04/16 11:03:17;;;;;;;4.10;2.23;;;;;;;11.02;99.49;103148.91;7396221;19;20918;-51
2022/04/16 11:05:47;;;;;;;14.27;7.17;;;;;;;11.12;100.00;103142.75;7390670;19;20415;-48
2022/04/16 11:08:25;;;;;;;4.93;1.90;;;;;;;11.04;97.85;103145.63;7396236;19;20388;-46
2022/04/16 11:10:58;;;;;;;13.47;6.67;;;;;;;11.21;99.17;103133.13;7391869;19;20412;-47
2022/04/16 11:13:36;;;;;;;5.40;1.93;;;;;;;11.12;92.49;103141.06;7397302;19;20380;-48
2022/04/16 11:16:09;;;;;;;5.53;2.13;;;;;;;11.27;93.10;103137.88;7372433;19;20418;-47
2022/04/16 11:18:44;;;;;;;6.30;2.57;;;;;;;11.41;96.80;103137.25;7394667;19;20404;-45
2022/04/16 11:21:17;;;;;;;7.20;3.83;;;;;;;11.41;95.51;103139.84;7391359;19;20435;-48
2022/04/16 11:23:47;;;;;;;5.53;3.07;;;;;;;11.05;92.21;103131.03;7395066;19;20728;-50
2022/04/16 11:34:29;;;;;;;25.47;10.17;;;;;;;11.31;91.46;103125.31;7396538;19;20396;-46
2022/04/16 11:37:18;;;;;;;8.43;4.23;;;;;;;11.55;93.37;103129.63;7353325;19;20947;-48
2022/04/16 11:39:50;;;;;;;7.33;2.80;;;;;;;11.65;90.36;103137.31;7394120;19;20450;-45
2022/04/16 11:42:21;;;;;;;5.97;3.53;;;;;;;11.55;89.43;103134.81;7357824;19;20396;-43
2022/04/16 11:44:52;;;;;;;4.80;2.40;;;;;;;11.39;86.61;103125.88;7396256;19;20472;-48
2022/04/16 11:47:26;;;;;;;14.60;7.43;;;;;;;11.44;90.24;103124.53;7348044;19;20392;-49
2022/04/16 11:49:57;;;;;;;23.00;12.60;;;;;;;11.58;90.65;103120.44;7393406;19;20767;-48
2022/04/16 11:52:28;;;;;;;12.57;5.50;;;;;;;11.82;88.64;103128.22;7386093;19;20449;-48
2022/04/16 11:55:05;;;;;;;3.50;1.90;;;;;;;11.76;84.90;103130.34;7395960;19;20944;-44
2022/04/16 11:57:36;;;;;;;16.13;7.93;;;;;;;11.72;85.18;103124.06;7388352;19;20436;-48
2022/04/16 12:00:08;;;;;;;18.23;8.00;;;;;;;11.78;86.94;103122.72;7392914;19;20780;-47
2022/04/16 12:02:42;;;;;;;10.00;4.23;;;;;;;11.73;86.33;103125.84;7389312;19;20425;-46